Joplin, MO

2:17 PM CST on December 27, 2014 (GMT -0600)
Mohaska | Change Station
CLOSE
Current Station
Personal Weather Station
Location: Joplin, MO
Elevation: 1010 ft
Nearby Weather Stations

Elev 1010 ft 37.06 °N, 94.52 °W | Updated 13 minutes ago

Snow
Snow
30.5 °F
Feels Like 30 °F
N
0.0
Wind Variable Wind from NNW
Gusts 6.0 mph

Today
High -- | Low -- °F
--% Chance of Precip.
Yesterday
High -- | Low -- °F
Precip. -- in
7:30 AM 5:08 PM
Waxing Crescent, 39% visible
Pressure 30.24 in
Visibility 2.0 miles
Clouds Mostly Cloudy 700 ft
Mostly Cloudy 1100 ft
Overcast 2700 ft
Windchill 30 °F
Dew Point 29 °F
Humidity 92%
Rainfall 0.02 in
Snow Depth Not available.
UV 1 out of 12
Pollen 2.80 out of 12
Air Quality Not available.
Flu Activity Not available.
METAR KJLN 271953Z 31007KT 2SM -SN BR BKN007 BKN011 OVC027 M01/M02 A3022 RMK AO2 SLP240 P0003 T10111017

More Conditions Fewer Conditions

Pressure 30.24 in
Visibility 2.0 miles
Clouds Mostly Cloudy 700 ft
Mostly Cloudy 1100 ft
Overcast 2700 ft
Windchill 30 °F
Dew Point 29 °F
Humidity 92%
Rainfall 0.02 in
Snow Depth Not available.
UV 1 out of 12
Pollen 2.80 out of 12
Air Quality Not available.
Flu Activity Not available.
METAR KJLN 271953Z 31007KT 2SM -SN BR BKN007 BKN011 OVC027 M01/M02 A3022 RMK AO2 SLP240 P0003 T10111017

More Conditions Fewer Conditions

10-Day Weather Forecast

Almanac

Astronomy

Dec. 27, 2014 Rise Set
Actual Time
Civil Twilight
Nautical Twilight
Astronomical Twilight
Moon
Length of Visible Light
Length of Day
Tomorrow will be .
, % of the Moon is Illuminated

Today's Extremes

State Highs State Lows

Community

WunderPhotos

Upload Photos

1,781,037 photos uploaded!

WunderBlogs® & News

Nearby

Air Quality

  Air Quality AQ Index Pollutant
Not available.

Snow Depth

Station Depth Elevation

Earthquake Activity

City Distance Mag. Time & Date
Minimum magnitude displayed is 2.5.

Coastal Water Temperatures

Place Temperature

Nearby Weather Stations